^^
Station Historical Data
Daily Summary for January 30, 2018 Units:  Both    English   Metric
« Previous Day
Next Day »
Daily Weekly Monthly Yearly Custom
  High: Low: Average:
Temperature: TemperatureF °F /  -17.8 °C 75.0 °F /  23.9 °C 82.6 °F /  28.1 °C
Dew Point: DewpointF °F /  -17.8 °C 30.9 °F /  -0.6 °C 36.7 °F /  2.6 °C
Humidity: Humidity% 15% 19%
Wind Speed: WindSpeedMPHmph /  0km/h - -3.4mph /  -5.5km/h
Wind Gust: WindSpeedGustMPHmph /  0km/h - -
Wind- - NE
Pressure: PressureIn in /  0 hPa 29.44 in /  996.8 hPa -
Precipitation: 0.00 in /  0 mm    
Historical Graphs
 
 
Tabular Data for January 30, 2018
Time Temperature Dew Point Pressure Wind Wind Speed Wind Gust Humidity Rainfall Rate (Hourly) solar Conditions
TemperatureF °F /  -17.8 °C DewpointF °F /  -17.8 °C PressureInin /  0hPa Calm     Humidity% HourlyPrecipInin /  0mm SoftwareType W/m2 Conditions
08:46 75.0 °F /  23.9 °C 31.3 °F /  -0.4 °C 29.57in /  1001.2hPa North -999.9mph /  -1609.1km/h -999.0mph /  -1607.7km/h 20% 0.00in /  0mm meteobridge W/m2
08:52 76.3 °F /  24.6 °C 30.9 °F /  -0.6 °C 29.58in /  1001.6hPa SE 4.9mph /  7.9km/h 6.0mph /  9.7km/h 19% 0.00in /  0mm meteobridge W/m2
08:58 75.7 °F /  24.3 °C 31.8 °F /  -0.1 °C 29.58in /  1001.6hPa SSW 2.9mph /  4.7km/h 8.0mph /  12.9km/h 20% 0.00in /  0mm meteobridge W/m2
09:18 77.5 °F /  25.3 °C 32.0 °F /  0 °C 29.59in /  1001.9hPa NNE 13.0mph /  20.9km/h 13.0mph /  20.9km/h 19% 0.00in /  0mm meteobridge W/m2
09:25 77.5 °F /  25.3 °C 33.3 °F /  0.7 °C 29.59in /  1001.9hPa SSE 4.0mph /  6.4km/h 11.0mph /  17.7km/h 20% 0.00in /  0mm meteobridge W/m2
09:31 78.1 °F /  25.6 °C 32.5 °F /  0.3 °C 29.59in /  1001.9hPa NNW 4.9mph /  7.9km/h 15.0mph /  24.1km/h 19% 0.00in /  0mm meteobridge W/m2
09:37 77.5 °F /  25.3 °C 32.0 °F /  0 °C 29.59in /  1001.9hPa NNW 6.0mph /  9.7km/h 10.0mph /  16.1km/h 19% 0.00in /  0mm meteobridge W/m2
09:43 77.2 °F /  25.1 °C 33.1 °F /  0.6 °C 29.59in /  1001.9hPa NNE 6.0mph /  9.7km/h 7.0mph /  11.3km/h 20% 0.00in /  0mm meteobridge W/m2
09:49 77.9 °F /  25.5 °C 33.6 °F /  0.9 °C 29.60in /  1002.3hPa NNW 4.0mph /  6.4km/h 10.0mph /  16.1km/h 20% 0.00in /  0mm meteobridge W/m2
09:55 77.7 °F /  25.4 °C 33.4 °F /  0.8 °C 29.60in /  1002.3hPa NNW 11.0mph /  17.7km/h 15.0mph /  24.1km/h 20% 0.00in /  0mm meteobridge W/m2
10:01 77.5 °F /  25.3 °C 33.3 °F /  0.7 °C 29.61in /  1002.6hPa NNW 10.1mph /  16.3km/h 14.0mph /  22.5km/h 20% 0.00in /  0mm meteobridge W/m2
10:08 77.9 °F /  25.5 °C 33.6 °F /  0.9 °C 29.60in /  1002.3hPa Calm   10.0mph /  16.1km/h 20% 0.00in /  0mm meteobridge W/m2
10:14 79.0 °F /  26.1 °C 34.5 °F /  1.4 °C 29.60in /  1002.3hPa NNE 4.9mph /  7.9km/h 5.0mph /  8km/h 20% 0.00in /  0mm meteobridge W/m2
10:20 79.3 °F /  26.3 °C 34.7 °F /  1.5 °C 29.60in /  1002.3hPa North 6.9mph /  11.1km/h 9.0mph /  14.5km/h 20% 0.00in /  0mm meteobridge W/m2
10:43 80.1 °F /  26.7 °C 37.8 °F /  3.2 °C 29.60in /  1002.3hPa SW 4.9mph /  7.9km/h 9.0mph /  14.5km/h 22% 0.00in /  0mm meteobridge W/m2
10:49 80.8 °F /  27.1 °C 38.5 °F /  3.6 °C 29.60in /  1002.3hPa SE 0.9mph /  1.4km/h 5.0mph /  8km/h 22% 0.00in /  0mm meteobridge W/m2
10:55 82.4 °F /  28 °C 36.0 °F /  2.2 °C 29.59in /  1001.9hPa NNE 6.0mph /  9.7km/h 9.0mph /  14.5km/h 19% 0.00in /  0mm meteobridge W/m2
11:01 82.2 °F /  27.9 °C 37.2 °F /  2.9 °C 29.59in /  1001.9hPa NW 6.0mph /  9.7km/h 12.0mph /  19.3km/h 20% 0.00in /  0mm meteobridge W/m2
11:07 81.9 °F /  27.7 °C 36.9 °F /  2.7 °C 29.59in /  1001.9hPa Calm   6.0mph /  9.7km/h 20% 0.00in /  0mm meteobridge W/m2
11:13 82.0 °F /  27.8 °C 37.0 °F /  2.8 °C 29.59in /  1001.9hPa NNE 2.0mph /  3.2km/h 5.0mph /  8km/h 20% 0.00in /  0mm meteobridge W/m2
11:19 82.9 °F /  28.3 °C 37.8 °F /  3.2 °C 29.59in /  1001.9hPa North 10.1mph /  16.3km/h 15.0mph /  24.1km/h 20% 0.00in /  0mm meteobridge W/m2
11:25 82.0 °F /  27.8 °C 38.3 °F /  3.5 °C 29.59in /  1001.9hPa NNE 17.0mph /  27.4km/h 17.0mph /  27.4km/h 21% 0.00in /  0mm meteobridge W/m2
11:27 81.7 °F /  27.6 °C 37.9 °F /  3.3 °C 29.59in /  1001.9hPa NE 10.1mph /  16.3km/h 13.0mph /  20.9km/h 21% 0.00in /  0mm meteobridge W/m2
11:43 82.8 °F /  28.2 °C 40.1 °F /  4.5 °C 29.59in /  1001.9hPa North 4.9mph /  7.9km/h 8.0mph /  12.9km/h 22% 0.00in /  0mm meteobridge W/m2
11:49 82.8 °F /  28.2 °C 38.8 °F /  3.8 °C 29.59in /  1001.9hPa North 2.0mph /  3.2km/h 13.0mph /  20.9km/h 21% 0.00in /  0mm meteobridge W/m2
11:56 82.0 °F /  27.8 °C 39.4 °F /  4.1 °C 29.59in /  1001.9hPa Calm   11.0mph /  17.7km/h 22% 0.00in /  0mm meteobridge W/m2
12:02 81.9 °F /  27.7 °C 39.2 °F /  4 °C 29.59in /  1001.9hPa NNE 6.0mph /  9.7km/h 9.0mph /  14.5km/h 22% 0.00in /  0mm meteobridge W/m2
12:08 82.2 °F /  27.9 °C 39.6 °F /  4.2 °C 29.58in /  1001.6hPa North 10.1mph /  16.3km/h 15.0mph /  24.1km/h 22% 0.00in /  0mm meteobridge W/m2
12:14 82.8 °F /  28.2 °C 38.8 °F /  3.8 °C 29.58in /  1001.6hPa NW 2.9mph /  4.7km/h 7.0mph /  11.3km/h 21% 0.00in /  0mm meteobridge W/m2
12:22 82.9 °F /  28.3 °C 39.0 °F /  3.9 °C 29.58in /  1001.6hPa NE 2.0mph /  3.2km/h 3.0mph /  4.8km/h 21% 0.00in /  0mm meteobridge W/m2
12:32 85.3 °F /  29.6 °C 41.0 °F /  5 °C 29.57in /  1001.2hPa NNW 6.0mph /  9.7km/h 10.0mph /  16.1km/h 21% 0.00in /  0mm meteobridge W/m2
12:39 85.3 °F /  29.6 °C 41.0 °F /  5 °C 29.58in /  1001.6hPa ESE 4.9mph /  7.9km/h 7.0mph /  11.3km/h 21% 0.00in /  0mm meteobridge W/m2
12:45 86.0 °F /  30 °C 40.3 °F /  4.6 °C 29.57in /  1001.2hPa North 4.9mph /  7.9km/h 7.0mph /  11.3km/h 20% 0.00in /  0mm meteobridge W/m2
12:51 84.7 °F /  29.3 °C 40.5 °F /  4.7 °C 29.57in /  1001.2hPa WSW 2.0mph /  3.2km/h 9.0mph /  14.5km/h 21% 0.00in /  0mm meteobridge W/m2
12:57 85.3 °F /  29.6 °C 39.7 °F /  4.3 °C 29.57in /  1001.2hPa ENE 2.9mph /  4.7km/h 9.0mph /  14.5km/h 20% 0.00in /  0mm meteobridge W/m2
13:03 85.6 °F /  29.8 °C 39.9 °F /  4.4 °C 29.57in /  1001.2hPa Calm   3.0mph /  4.8km/h 20% 0.00in /  0mm meteobridge W/m2
13:09 86.5 °F /  30.3 °C 40.6 °F /  4.8 °C 29.56in /  1000.9hPa NE 2.9mph /  4.7km/h 6.0mph /  9.7km/h 20% 0.00in /  0mm meteobridge W/m2
13:15 87.4 °F /  30.8 °C 40.1 °F /  4.5 °C 29.55in /  1000.6hPa NNW 0.9mph /  1.4km/h 10.0mph /  16.1km/h 19% 0.00in /  0mm meteobridge W/m2
13:21 86.2 °F /  30.1 °C 40.5 °F /  4.7 °C 29.55in /  1000.6hPa NNW 4.9mph /  7.9km/h 12.0mph /  19.3km/h 20% 0.00in /  0mm meteobridge W/m2
13:27 85.8 °F /  29.9 °C 40.1 °F /  4.5 °C 29.55in /  1000.6hPa NNE 10.1mph /  16.3km/h 13.0mph /  20.9km/h 20% 0.00in /  0mm meteobridge W/m2
13:33 85.6 °F /  29.8 °C 39.9 °F /  4.4 °C 29.55in /  1000.6hPa East 6.0mph /  9.7km/h 7.0mph /  11.3km/h 20% 0.00in /  0mm meteobridge W/m2
13:40 87.6 °F /  30.9 °C 40.3 °F /  4.6 °C 29.55in /  1000.6hPa NNW 0.9mph /  1.4km/h 8.0mph /  12.9km/h 19% 0.00in /  0mm meteobridge W/m2
13:46 88.3 °F /  31.3 °C 40.8 °F /  4.9 °C 29.54in /  1000.2hPa North 11.0mph /  17.7km/h 19.0mph /  30.6km/h 19% 0.00in /  0mm meteobridge W/m2
13:52 86.7 °F /  30.4 °C 40.8 °F /  4.9 °C 29.54in /  1000.2hPa SSE 2.0mph /  3.2km/h 9.0mph /  14.5km/h 20% 0.00in /  0mm meteobridge W/m2
13:58 86.2 °F /  30.1 °C 40.5 °F /  4.7 °C 29.54in /  1000.2hPa SSW 2.9mph /  4.7km/h 8.0mph /  12.9km/h 20% 0.00in /  0mm meteobridge W/m2
14:04 86.0 °F /  30 °C 40.3 °F /  4.6 °C 29.53in /  999.9hPa South 2.0mph /  3.2km/h 3.0mph /  4.8km/h 20% 0.00in /  0mm meteobridge W/m2
14:10 87.6 °F /  30.9 °C 41.5 °F /  5.3 °C 29.52in /  999.5hPa East 2.0mph /  3.2km/h 7.0mph /  11.3km/h 20% 0.00in /  0mm meteobridge W/m2
14:16 88.3 °F /  31.3 °C 40.8 °F /  4.9 °C 29.52in /  999.5hPa NNE 14.1mph /  22.7km/h 18.0mph /  29km/h 19% 0.00in /  0mm meteobridge W/m2
14:22 86.2 °F /  30.1 °C 39.0 °F /  3.9 °C 29.52in /  999.5hPa NNE 13.0mph /  20.9km/h 18.0mph /  29km/h 19% 0.00in /  0mm meteobridge W/m2
14:28 85.3 °F /  29.6 °C 41.0 °F /  5 °C 29.52in /  999.5hPa SSE 4.0mph /  6.4km/h 7.0mph /  11.3km/h 21% 0.00in /  0mm meteobridge W/m2
14:35 86.5 °F /  30.3 °C 40.6 °F /  4.8 °C 29.52in /  999.5hPa South 6.0mph /  9.7km/h 6.0mph /  9.7km/h 20% 0.00in /  0mm meteobridge W/m2
14:41 85.6 °F /  29.8 °C 39.9 °F /  4.4 °C 29.52in /  999.5hPa SSW 8.9mph /  14.3km/h 9.0mph /  14.5km/h 20% 0.00in /  0mm meteobridge W/m2
14:47 85.3 °F /  29.6 °C 41.0 °F /  5 °C 29.52in /  999.5hPa SE 4.9mph /  7.9km/h 6.0mph /  9.7km/h 21% 0.00in /  0mm meteobridge W/m2
14:53 86.2 °F /  30.1 °C 40.5 °F /  4.7 °C 29.51in /  999.2hPa SSE 11.0mph /  17.7km/h 16.0mph /  25.7km/h 20% 0.00in /  0mm meteobridge W/m2
14:59 85.6 °F /  29.8 °C 39.9 °F /  4.4 °C 29.50in /  998.9hPa North 13.0mph /  20.9km/h 13.0mph /  20.9km/h 20% 0.00in /  0mm meteobridge W/m2
15:05 85.3 °F /  29.6 °C 39.7 °F /  4.3 °C 29.51in /  999.2hPa NNE 4.0mph /  6.4km/h 6.0mph /  9.7km/h 20% 0.00in /  0mm meteobridge W/m2
15:26 86.2 °F /  30.1 °C 40.5 °F /  4.7 °C 29.49in /  998.5hPa NNE 6.0mph /  9.7km/h 6.0mph /  9.7km/h 20% 0.00in /  0mm meteobridge W/m2
15:32 86.7 °F /  30.4 °C 40.8 °F /  4.9 °C 29.49in /  998.5hPa NNE 10.1mph /  16.3km/h 11.0mph /  17.7km/h 20% 0.00in /  0mm meteobridge W/m2
15:38 85.6 °F /  29.8 °C 39.9 °F /  4.4 °C 29.49in /  998.5hPa NNE 2.9mph /  4.7km/h 3.0mph /  4.8km/h 20% 0.00in /  0mm meteobridge W/m2
15:44 85.6 °F /  29.8 °C 39.9 °F /  4.4 °C 29.49in /  998.5hPa ESE 0.9mph /  1.4km/h 4.0mph /  6.4km/h 20% 0.00in /  0mm meteobridge W/m2
15:50 85.6 °F /  29.8 °C 39.9 °F /  4.4 °C 29.49in /  998.5hPa South 2.9mph /  4.7km/h 6.0mph /  9.7km/h 20% 0.00in /  0mm meteobridge W/m2
15:56 84.7 °F /  29.3 °C 39.2 °F /  4 °C 29.48in /  998.2hPa SW 0.9mph /  1.4km/h 5.0mph /  8km/h 20% 0.00in /  0mm meteobridge W/m2
16:03 85.1 °F /  29.5 °C 39.6 °F /  4.2 °C 29.48in /  998.2hPa South 2.0mph /  3.2km/h 4.0mph /  6.4km/h 20% 0.00in /  0mm meteobridge W/m2
16:09 86.0 °F /  30 °C 40.3 °F /  4.6 °C 29.48in /  998.2hPa South 10.1mph /  16.3km/h 11.0mph /  17.7km/h 20% 0.00in /  0mm meteobridge W/m2
16:15 85.6 °F /  29.8 °C 39.9 °F /  4.4 °C 29.47in /  997.9hPa SSE 2.0mph /  3.2km/h 10.0mph /  16.1km/h 20% 0.00in /  0mm meteobridge W/m2
16:21 85.5 °F /  29.7 °C 39.7 °F /  4.3 °C 29.47in /  997.9hPa SSW 6.9mph /  11.1km/h 7.0mph /  11.3km/h 20% 0.00in /  0mm meteobridge W/m2
16:27 84.7 °F /  29.3 °C 39.2 °F /  4 °C 29.47in /  997.9hPa South 8.9mph /  14.3km/h 11.0mph /  17.7km/h 20% 0.00in /  0mm meteobridge W/m2
16:33 84.9 °F /  29.4 °C 38.1 °F /  3.4 °C 29.47in /  997.9hPa SSE 0.9mph /  1.4km/h 4.0mph /  6.4km/h 19% 0.00in /  0mm meteobridge W/m2
16:39 85.6 °F /  29.8 °C 39.9 °F /  4.4 °C 29.47in /  997.9hPa SSE 2.9mph /  4.7km/h 3.0mph /  4.8km/h 20% 0.00in /  0mm meteobridge W/m2
16:45 86.9 °F /  30.5 °C 39.7 °F /  4.3 °C 29.46in /  997.5hPa South 12.1mph /  19.5km/h 14.0mph /  22.5km/h 19% 0.00in /  0mm meteobridge W/m2
17:09 88.2 °F /  31.2 °C 37.9 °F /  3.3 °C 29.45in /  997.2hPa Calm   3.0mph /  4.8km/h 17% 0.00in /  0mm meteobridge W/m2
17:14 89.6 °F /  32 °C 39.0 °F /  3.9 °C 29.44in /  996.8hPa South 10.1mph /  16.3km/h 12.0mph /  19.3km/h 17% 0.00in /  0mm meteobridge W/m2
17:20 88.2 °F /  31.2 °C 37.9 °F /  3.3 °C 29.44in /  996.8hPa SSW 6.0mph /  9.7km/h 15.0mph /  24.1km/h 17% 0.00in /  0mm meteobridge W/m2
17:26 88.2 °F /  31.2 °C 37.9 °F /  3.3 °C 29.44in /  996.8hPa South 2.9mph /  4.7km/h 17.0mph /  27.4km/h 17% 0.00in /  0mm meteobridge W/m2
17:32 87.6 °F /  30.9 °C 34.3 °F /  1.3 °C 29.44in /  996.8hPa South 17.9mph /  28.8km/h 23.0mph /  37km/h 15% 0.00in /  0mm meteobridge W/m2
17:38 87.4 °F /  30.8 °C 34.2 °F /  1.2 °C 29.44in /  996.8hPa South 19.9mph /  32km/h 20.0mph /  32.2km/h 15% 0.00in /  0mm meteobridge W/m2
17:44 87.3 °F /  30.7 °C 34.0 °F /  1.1 °C 29.44in /  996.8hPa SSW 8.1mph /  13km/h 13.0mph /  20.9km/h 15% 0.00in /  0mm meteobridge W/m2
17:52 86.5 °F /  30.3 °C 33.4 °F /  0.8 °C 29.44in /  996.8hPa South 17.0mph /  27.4km/h 19.0mph /  30.6km/h 15% 0.00in /  0mm meteobridge W/m2
17:59 85.6 °F /  29.8 °C 32.7 °F /  0.4 °C 29.45in /  997.2hPa SSE 8.9mph /  14.3km/h 22.0mph /  35.4km/h 15% 0.00in /  0mm meteobridge W/m2
18:05 85.3 °F /  29.6 °C 32.4 °F /  0.2 °C 29.45in /  997.2hPa South 16.1mph /  25.9km/h 21.0mph /  33.8km/h 15% 0.00in /  0mm meteobridge W/m2
18:11 84.7 °F /  29.3 °C 32.0 °F /  0 °C 29.45in /  997.2hPa SE 8.1mph /  13km/h 15.0mph /  24.1km/h 15% 0.00in /  0mm meteobridge W/m2
18:17 84.6 °F /  29.2 °C 31.8 °F /  -0.1 °C 29.45in /  997.2hPa South 16.1mph /  25.9km/h 21.0mph /  33.8km/h 15% 0.00in /  0mm meteobridge W/m2
18:23 84.0 °F /  28.9 °C 31.5 °F /  -0.3 °C 29.46in /  997.5hPa SSE 12.1mph /  19.5km/h 17.0mph /  27.4km/h 15% 0.00in /  0mm meteobridge W/m2
18:29 83.7 °F /  28.7 °C 31.1 °F /  -0.5 °C 29.46in /  997.5hPa South 14.1mph /  22.7km/h 17.0mph /  27.4km/h 15% 0.00in /  0mm meteobridge W/m2
18:35 83.3 °F /  28.5 °C 32.4 °F /  0.2 °C 29.46in /  997.5hPa SSW 13.0mph /  20.9km/h 18.0mph /  29km/h 16% 0.00in /  0mm meteobridge W/m2
18:41 82.9 °F /  28.3 °C 32.2 °F /  0.1 °C 29.47in /  997.9hPa SSE 8.9mph /  14.3km/h 17.0mph /  27.4km/h 16% 0.00in /  0mm meteobridge W/m2
18:47 82.4 °F /  28 °C 33.3 °F /  0.7 °C 29.47in /  997.9hPa SSE 8.1mph /  13km/h 17.0mph /  27.4km/h 17% 0.00in /  0mm meteobridge W/m2
18:53 81.3 °F /  27.4 °C 33.8 °F /  1 °C 29.47in /  997.9hPa South 12.1mph /  19.5km/h 19.0mph /  30.6km/h 18% 0.00in /  0mm meteobridge W/m2
18:59 80.4 °F /  26.9 °C 33.1 °F /  0.6 °C 29.48in /  998.2hPa South 17.0mph /  27.4km/h 17.0mph /  27.4km/h 18% 0.00in /  0mm meteobridge W/m2
19:06 80.1 °F /  26.7 °C 34.2 °F /  1.2 °C 29.47in /  997.9hPa SE 13.0mph /  20.9km/h 17.0mph /  27.4km/h 19% 0.00in /  0mm meteobridge W/m2
19:12 79.9 °F /  26.6 °C 34.0 °F /  1.1 °C 29.48in /  998.2hPa South 6.9mph /  11.1km/h 16.0mph /  25.7km/h 19% 0.00in /  0mm meteobridge W/m2
19:18 79.3 °F /  26.3 °C 33.4 °F /  0.8 °C 29.48in /  998.2hPa SSE 12.1mph /  19.5km/h 16.0mph /  25.7km/h 19% 0.00in /  0mm meteobridge W/m2
19:24 78.4 °F /  25.8 °C 34.0 °F /  1.1 °C 29.48in /  998.2hPa SE 11.0mph /  17.7km/h 15.0mph /  24.1km/h 20% 0.00in /  0mm meteobridge W/m2
19:30 78.1 °F /  25.6 °C 34.9 °F /  1.6 °C 29.49in /  998.5hPa South 10.1mph /  16.3km/h 10.1mph /  16.3km/h 21% 0.00in /  0mm meteobridge W/m2
19:37 78.1 °F /  25.6 °C 34.9 °F /  1.6 °C 29.49in /  998.5hPa South 10.1mph /  16.3km/h -999.0mph /  -1607.7km/h 21% 0.00in /  0mm meteobridge W/m2
19:43 78.1 °F /  25.6 °C 34.9 °F /  1.6 °C 29.49in /  998.5hPa South 10.1mph /  16.3km/h -999.0mph /  -1607.7km/h 21% 0.00in /  0mm meteobridge W/m2
Regenstein, Windhoek, Namibia
Compliments of Weather Underground - 2.5 mb